Time;durP1;ratioP1;P1;durP2;ratioP2;P2;SDS_P1;SDS_P2;PMS_P1;PMS_P2;Temp;Humidity;BMP_temperature;BMP_pressure;BME280_temperature;BME280_humidity;BME280_pressure;Samples;Min_cycle;Max_cycle;Signal;HPM_P1;HPM_P2
2022/01/17 00:00:39;;;;;;;36.38;20.98;;;4.30;99.90;;;;;;2086515;28;20075;-74
2022/01/17 00:01:41;;;;;;;33.25;20.63;;;4.30;99.90;;;;;;2092356;28;20028;-73
2022/01/17 00:02:42;;;;;;;33.42;20.58;;;4.40;99.90;;;;;;2087410;28;20036;-73
2022/01/17 00:03:43;;;;;;;34.33;20.58;;;4.30;99.90;;;;;;2083354;28;20484;-74
2022/01/17 00:04:44;;;;;;;34.65;20.85;;;4.40;99.90;;;;;;2080491;28;20033;-71
2022/01/17 00:05:45;;;;;;;35.35;21.30;;;4.40;99.90;;;;;;2082656;28;20036;-73
2022/01/17 00:06:46;;;;;;;34.80;21.27;;;4.40;99.90;;;;;;2081700;28;20032;-74
2022/01/17 00:07:47;;;;;;;34.72;21.02;;;4.40;99.90;;;;;;2071959;28;20037;-74
2022/01/17 00:08:49;;;;;;;33.60;20.60;;;4.40;99.90;;;;;;2079443;28;20108;-74
2022/01/17 00:09:50;;;;;;;34.45;21.40;;;4.40;99.90;;;;;;2090556;28;20124;-74
2022/01/17 00:10:51;;;;;;;34.78;21.38;;;4.40;99.90;;;;;;2088665;28;20104;-73
2022/01/17 00:11:52;;;;;;;34.30;20.98;;;4.40;99.90;;;;;;2073404;28;20022;-72
2022/01/17 00:12:57;;;;;;;35.70;21.40;;;4.40;99.90;;;;;;2087669;28;20116;-73
2022/01/17 00:13:58;;;;;;;34.67;21.50;;;4.40;99.90;;;;;;2090435;28;20044;-73
2022/01/17 00:14:59;;;;;;;32.92;20.83;;;4.40;99.90;;;;;;2095169;28;20441;-73
2022/01/17 00:16:11;;;;;;;34.15;20.88;;;4.40;99.90;;;;;;2086797;28;20029;-72
2022/01/17 00:20:08;;;;;;;34.75;21.13;;;4.30;99.90;;;;;;2079946;28;20029;-71
2022/01/17 00:20:46;;;;;;;33.90;20.50;;;4.30;99.90;;;;;;2079873;28;20143;-73
2022/01/17 00:21:46;;;;;;;34.35;20.60;;;4.30;99.90;;;;;;2090625;28;20051;-73
2022/01/17 00:22:49;;;;;;;34.58;20.13;;;4.30;99.90;;;;;;2096621;28;20024;-73
2022/01/17 00:23:49;;;;;;;33.63;20.50;;;4.30;99.90;;;;;;2092859;28;20040;-72
2022/01/17 00:24:50;;;;;;;34.78;20.70;;;4.40;99.90;;;;;;2094066;28;20025;-72
2022/01/17 00:25:51;;;;;;;32.58;21.48;;;4.40;99.90;;;;;;2095431;28;20036;-73
2022/01/17 00:26:52;;;;;;;33.92;20.70;;;4.30;99.90;;;;;;2097262;28;20099;-73
2022/01/17 00:27:53;;;;;;;34.30;21.27;;;4.30;99.90;;;;;;2080567;28;20028;-73
2022/01/17 00:28:53;;;;;;;34.20;20.15;;;4.30;99.90;;;;;;2088126;28;20463;-73
2022/01/17 00:29:54;;;;;;;34.55;21.20;;;4.30;99.90;;;;;;2087018;28;20032;-73
2022/01/17 00:30:54;;;;;;;32.55;20.73;;;4.30;99.90;;;;;;2088766;28;20480;-73
2022/01/17 00:31:56;;;;;;;32.60;20.67;;;4.30;99.90;;;;;;2087337;28;20013;-73
2022/01/17 00:32:56;;;;;;;32.63;20.20;;;4.40;99.90;;;;;;2086567;28;20020;-71
2022/01/17 00:33:57;;;;;;;33.33;20.52;;;4.40;99.90;;;;;;2090594;28;20104;-74
2022/01/17 00:34:58;;;;;;;31.10;20.13;;;4.40;99.90;;;;;;2087802;28;20586;-71
2022/01/17 00:35:58;;;;;;;33.65;20.63;;;4.40;99.90;;;;;;2081578;28;20036;-74
2022/01/17 00:36:59;;;;;;;33.10;19.85;;;4.40;99.90;;;;;;2096550;28;20395;-71
2022/01/17 00:38:00;;;;;;;32.55;20.33;;;4.40;99.90;;;;;;2085744;28;20020;-73
2022/01/17 00:39:00;;;;;;;33.40;20.67;;;4.40;99.90;;;;;;2079554;28;20033;-72
2022/01/17 00:40:01;;;;;;;34.25;20.27;;;4.40;99.90;;;;;;2088002;28;20028;-73
2022/01/17 00:41:02;;;;;;;32.05;20.30;;;4.40;99.90;;;;;;2075577;28;20053;-73
2022/01/17 00:42:03;;;;;;;31.63;20.02;;;4.40;99.90;;;;;;2073948;28;20052;-72
2022/01/17 00:43:03;;;;;;;31.98;19.83;;;4.40;99.90;;;;;;2079769;28;20034;-72
2022/01/17 00:44:04;;;;;;;32.42;20.15;;;4.40;99.90;;;;;;2082053;28;20443;-72
2022/01/17 00:45:07;;;;;;;35.05;21.35;;;4.40;99.90;;;;;;2096900;28;20033;-72
2022/01/17 00:46:09;;;;;;;33.28;20.40;;;4.40;99.90;;;;;;2091163;28;20035;-71
2022/01/17 00:47:09;;;;;;;31.42;20.02;;;4.50;99.90;;;;;;2086972;28;20033;-73
2022/01/17 00:48:10;;;;;;;34.15;20.58;;;4.50;99.90;;;;;;2082133;28;20035;-73
2022/01/17 00:49:11;;;;;;;30.55;20.00;;;4.50;99.90;;;;;;2083058;28;20037;-72
2022/01/17 00:50:12;;;;;;;30.63;19.40;;;4.50;99.90;;;;;;2089564;28;20040;-73
2022/01/17 00:51:12;;;;;;;31.45;19.95;;;4.50;99.90;;;;;;2086470;28;20052;-73
2022/01/17 00:52:13;;;;;;;31.20;20.20;;;4.50;99.90;;;;;;2080584;28;20120;-73
2022/01/17 00:53:13;;;;;;;32.78;20.52;;;4.50;99.90;;;;;;2095300;28;20039;-73
2022/01/17 00:54:14;;;;;;;33.20;20.63;;;4.50;99.90;;;;;;2082899;28;20029;-71
2022/01/17 00:55:15;;;;;;;32.42;20.63;;;4.50;99.90;;;;;;2086400;28;20059;-73
2022/01/17 00:56:18;;;;;;;33.72;20.95;;;4.50;99.90;;;;;;2089772;28;20496;-73
2022/01/17 00:57:19;;;;;;;33.30;20.83;;;4.50;99.90;;;;;;2081777;28;20045;-74
2022/01/17 00:58:19;;;;;;;32.92;20.90;;;4.50;99.90;;;;;;2085243;28;20483;-73
2022/01/17 00:59:20;;;;;;;32.97;20.10;;;4.50;99.90;;;;;;2073761;28;20699;-74
2022/01/17 01:00:21;;;;;;;31.45;20.60;;;4.50;99.90;;;;;;2076792;28;20030;-74
2022/01/17 01:01:22;;;;;;;33.70;21.05;;;4.50;99.90;;;;;;2089492;28;20048;-73
2022/01/17 01:02:22;;;;;;;34.13;21.05;;;4.50;99.90;;;;;;2086462;28;20044;-74
2022/01/17 01:03:23;;;;;;;34.40;21.17;;;4.50;99.90;;;;;;2088971;28;20021;-74
2022/01/17 01:04:23;;;;;;;32.97;21.27;;;4.50;99.90;;;;;;2097967;28;20400;-74
2022/01/17 01:05:24;;;;;;;36.00;22.10;;;4.40;99.90;;;;;;2090786;28;20051;-73
2022/01/17 01:06:25;;;;;;;34.30;21.73;;;4.40;99.90;;;;;;2096752;28;20036;-75
2022/01/17 01:07:25;;;;;;;32.55;20.60;;;4.40;99.90;;;;;;2100936;28;20110;-73
2022/01/17 01:08:26;;;;;;;33.53;21.20;;;4.40;99.90;;;;;;2095416;28;20044;-72
2022/01/17 01:09:32;;;;;;;32.72;21.10;;;4.40;99.90;;;;;;2083719;28;20040;-74
2022/01/17 01:10:33;;;;;;;32.90;21.10;;;4.50;99.90;;;;;;2089583;28;20025;-72
2022/01/17 01:11:35;;;;;;;33.03;21.30;;;4.50;99.90;;;;;;2102655;28;20020;-72
2022/01/17 01:12:36;;;;;;;34.20;21.40;;;4.50;99.90;;;;;;2104948;28;20040;-73
2022/01/17 01:13:38;;;;;;;31.65;20.90;;;4.40;99.90;;;;;;2100649;28;20021;-75
2022/01/17 01:14:41;;;;;;;33.80;21.40;;;4.50;99.90;;;;;;2089741;28;20021;-73
2022/01/17 01:16:45;;;;;;;37.33;22.17;;;4.40;99.90;;;;;;2098255;28;20032;-73
2022/01/17 01:17:58;;;;;;;36.13;21.48;;;4.50;99.90;;;;;;2092579;28;20036;-72
2022/01/17 01:20:23;;;;;;;37.88;22.05;;;4.50;99.90;;;;;;2088735;28;20036;-72
2022/01/17 01:28:05;;;;;;;36.22;21.65;;;4.50;99.90;;;;;;2088172;28;20056;-74
2022/01/17 01:29:05;;;;;;;35.28;22.15;;;4.50;99.90;;;;;;2080960;28;20497;-73
2022/01/17 01:30:10;;;;;;;34.15;21.65;;;4.50;99.90;;;;;;2074017;28;20034;-72
2022/01/17 01:31:27;;;;;;;36.90;21.95;;;4.40;99.90;;;;;;2082190;28;20112;-71
2022/01/17 01:32:38;;;;;;;32.95;21.33;;;4.40;99.90;;;;;;2089492;28;20029;-72
2022/01/17 01:33:42;;;;;;;34.88;21.33;;;4.50;99.90;;;;;;2088885;28;20021;-72
2022/01/17 01:34:47;;;;;;;35.53;21.83;;;4.50;99.90;;;;;;2094509;28;20039;-73
2022/01/17 01:35:49;;;;;;;34.78;21.77;;;4.50;99.90;;;;;;2093934;28;20082;-73
2022/01/17 01:36:49;;;;;;;32.67;20.98;;;4.50;99.90;;;;;;2080159;28;20033;-72
2022/01/17 01:37:50;;;;;;;33.53;21.58;;;4.50;99.90;;;;;;2080121;28;20037;-73
2022/01/17 01:38:51;;;;;;;34.28;20.92;;;4.50;99.90;;;;;;2088275;28;20464;-75
2022/01/17 01:39:53;;;;;;;33.33;21.20;;;4.40;99.90;;;;;;2087489;28;20036;-72
2022/01/17 01:40:54;;;;;;;31.52;20.15;;;4.50;99.90;;;;;;2079800;28;20036;-73
2022/01/17 01:41:55;;;;;;;30.85;20.42;;;4.50;99.90;;;;;;2081747;28;20520;-72
2022/01/17 01:42:57;;;;;;;32.03;20.10;;;4.50;99.90;;;;;;2098136;28;20024;-72
2022/01/17 01:43:59;;;;;;;30.23;19.77;;;4.50;99.90;;;;;;2098838;28;20039;-72
2022/01/17 01:45:01;;;;;;;32.85;20.73;;;4.50;99.90;;;;;;2098660;28;20029;-74
2022/01/17 01:46:02;;;;;;;31.13;19.83;;;4.50;99.90;;;;;;2098172;28;20032;-73
2022/01/17 01:47:03;;;;;;;31.13;20.25;;;4.50;99.90;;;;;;2081320;28;20018;-73
2022/01/17 01:48:05;;;;;;;31.02;20.30;;;4.40;99.90;;;;;;2080168;28;20029;-73
2022/01/17 01:49:06;;;;;;;32.50;20.00;;;4.40;99.90;;;;;;2081167;28;20040;-73
2022/01/17 01:50:10;;;;;;;32.08;20.15;;;4.40;99.90;;;;;;2081401;28;20033;-73
2022/01/17 01:51:11;;;;;;;32.28;20.02;;;4.40;99.90;;;;;;2090115;28;20023;-72
2022/01/17 01:52:12;;;;;;;29.00;19.88;;;4.40;99.90;;;;;;2089693;28;20029;-75
2022/01/17 01:53:13;;;;;;;32.70;19.88;;;4.40;99.90;;;;;;2081633;28;20505;-73
2022/01/17 01:54:14;;;;;;;30.95;20.30;;;4.40;99.90;;;;;;2090112;28;20797;-73
2022/01/17 01:55:20;;;;;;;31.35;19.30;;;4.40;99.90;;;;;;2081042;28;20080;-72
2022/01/17 01:56:21;;;;;;;30.48;19.67;;;4.40;99.90;;;;;;2073925;28;20030;-70
2022/01/17 01:57:21;;;;;;;30.23;19.80;;;4.40;99.90;;;;;;2077452;28;20061;-73
2022/01/17 01:58:23;;;;;;;31.50;19.63;;;4.40;99.90;;;;;;2082758;28;20048;-72
2022/01/17 01:59:24;;;;;;;31.50;20.40;;;4.40;99.90;;;;;;2081118;28;20043;-71
2022/01/17 02:00:25;;;;;;;33.08;21.20;;;4.40;99.90;;;;;;2077355;28;20029;-72
2022/01/17 02:01:26;;;;;;;31.70;20.67;;;4.40;99.90;;;;;;2080044;28;20128;-72
2022/01/17 02:02:26;;;;;;;32.67;20.60;;;4.40;99.90;;;;;;2081165;28;20159;-71
2022/01/17 02:03:27;;;;;;;32.45;20.45;;;4.40;99.90;;;;;;2081517;28;20132;-71
2022/01/17 02:04:29;;;;;;;33.75;21.00;;;4.40;99.90;;;;;;2089218;28;20029;-74
2022/01/17 02:05:30;;;;;;;31.65;20.27;;;4.40;99.90;;;;;;2089944;28;20396;-73
2022/01/17 02:06:34;;;;;;;31.65;20.83;;;4.40;99.90;;;;;;2090190;28;20056;-74
2022/01/17 02:07:36;;;;;;;33.80;21.48;;;4.40;99.90;;;;;;2080932;28;20489;-74
2022/01/17 02:08:36;;;;;;;32.97;21.40;;;4.40;99.90;;;;;;2080718;28;20049;-72
2022/01/17 02:09:37;;;;;;;34.28;21.27;;;4.40;99.90;;;;;;2089148;28;20032;-74
2022/01/17 02:10:39;;;;;;;33.58;20.98;;;4.40;99.90;;;;;;2090366;28;20064;-74
2022/01/17 02:11:39;;;;;;;31.50;20.58;;;4.40;99.90;;;;;;2092034;28;20036;-74
2022/01/17 02:12:40;;;;;;;35.90;22.10;;;4.40;99.90;;;;;;2098246;28;20067;-73
2022/01/17 02:13:41;;;;;;;32.90;21.30;;;4.40;99.90;;;;;;2089385;28;20741;-74
2022/01/17 02:14:41;;;;;;;32.92;20.95;;;4.40;99.90;;;;;;2088988;28;20033;-73
2022/01/17 02:15:43;;;;;;;35.08;21.48;;;4.50;99.90;;;;;;2098237;28;20028;-72
2022/01/17 02:16:47;;;;;;;33.30;21.15;;;4.40;99.90;;;;;;2098159;28;20020;-73
2022/01/17 02:17:58;;;;;;;36.70;22.55;;;4.40;99.90;;;;;;2097172;28;20033;-73
2022/01/17 02:18:58;;;;;;;34.88;22.00;;;4.40;99.90;;;;;;2098115;28;20020;-72
2022/01/17 02:20:08;;;;;;;33.22;21.08;;;4.40;99.90;;;;;;2089413;28;20028;-73
2022/01/17 02:22:14;;;;;;;34.85;21.13;;;4.40;99.90;;;;;;2081576;28;20029;-73
2022/01/17 02:23:17;;;;;;;34.30;21.20;;;4.40;99.90;;;;;;2089292;28;20471;-73
2022/01/17 02:24:20;;;;;;;31.58;20.80;;;4.40;99.90;;;;;;2087617;28;20029;-73
2022/01/17 02:25:21;;;;;;;28.77;18.92;;;4.40;99.90;;;;;;2090012;28;20032;-73
2022/01/17 02:26:22;;;;;;;31.30;20.15;;;4.40;99.90;;;;;;2080175;28;20041;-72
2022/01/17 02:27:23;;;;;;;32.50;20.67;;;4.40;99.90;;;;;;2081280;28;20037;-74
2022/01/17 02:28:24;;;;;;;31.80;20.02;;;4.40;99.90;;;;;;2097816;28;20028;-72
2022/01/17 02:29:26;;;;;;;33.05;20.80;;;4.40;99.90;;;;;;2090341;28;20080;-73
2022/01/17 02:30:31;;;;;;;31.65;20.50;;;4.50;99.90;;;;;;2081024;28;20059;-73
2022/01/17 02:31:33;;;;;;;31.35;19.92;;;4.40;99.90;;;;;;2080745;28;20033;-73
2022/01/17 02:32:33;;;;;;;29.95;19.52;;;4.40;99.90;;;;;;2080838;28;20134;-74
2022/01/17 02:33:35;;;;;;;32.35;20.88;;;4.50;99.90;;;;;;2072697;28;20037;-74
2022/01/17 02:34:40;;;;;;;30.25;19.38;;;4.50;99.90;;;;;;2077487;28;20084;-74
2022/01/17 02:35:46;;;;;;;32.15;21.00;;;4.50;99.90;;;;;;2080912;28;20026;-75
2022/01/17 02:36:47;;;;;;;33.58;21.17;;;4.50;99.90;;;;;;2087599;28;20108;-75
2022/01/17 02:37:49;;;;;;;31.60;20.42;;;4.50;99.90;;;;;;2098044;28;20052;-75
2022/01/17 02:38:50;;;;;;;29.17;19.63;;;4.40;99.90;;;;;;2096817;28;20129;-73
2022/01/17 02:39:50;;;;;;;30.42;20.05;;;4.40;99.90;;;;;;2097665;28;20078;-75
2022/01/17 02:40:52;;;;;;;30.52;19.88;;;4.40;99.90;;;;;;2089231;28;20033;-72
2022/01/17 02:41:53;;;;;;;31.95;20.45;;;4.40;99.90;;;;;;2089033;28;20214;-73
2022/01/17 02:43:05;;;;;;;31.90;20.60;;;4.40;99.90;;;;;;2096611;28;20491;-74
2022/01/17 02:44:07;;;;;;;29.17;19.27;;;4.50;99.90;;;;;;2089465;28;20033;-73
2022/01/17 02:45:20;;;;;;;30.73;19.80;;;4.50;99.90;;;;;;2089737;28;20047;-73
2022/01/17 02:46:26;;;;;;;31.85;20.70;;;4.50;99.90;;;;;;2081089;28;20022;-73
2022/01/17 02:47:27;;;;;;;32.83;20.50;;;4.50;99.90;;;;;;2086025;28;20033;-73
2022/01/17 02:48:31;;;;;;;31.35;20.33;;;4.50;99.90;;;;;;2097491;28;20167;-72
2022/01/17 02:49:31;;;;;;;30.55;19.42;;;4.50;99.90;;;;;;2080826;28;20026;-73
2022/01/17 02:50:33;;;;;;;30.38;20.05;;;4.50;99.90;;;;;;2080829;28;20560;-74
2022/01/17 02:51:35;;;;;;;28.80;19.48;;;4.50;99.90;;;;;;2088365;28;20044;-73
2022/01/17 02:52:36;;;;;;;31.65;19.60;;;4.50;99.90;;;;;;2088913;28;20575;-73
2022/01/17 02:53:39;;;;;;;30.10;19.05;;;4.50;99.90;;;;;;2088997;28;20033;-73
2022/01/17 02:54:39;;;;;;;29.23;19.55;;;4.60;99.90;;;;;;2089053;28;20046;-73
2022/01/17 02:55:50;;;;;;;29.48;18.95;;;4.60;99.90;;;;;;2097481;28;20021;-74
2022/01/17 02:56:50;;;;;;;28.50;18.38;;;4.50;99.90;;;;;;2097911;28;20029;-73
2022/01/17 02:57:51;;;;;;;28.48;18.10;;;4.60;99.90;;;;;;2088733;28;20037;-73
2022/01/17 02:58:52;;;;;;;29.23;18.33;;;4.60;99.90;;;;;;2088947;28;20037;-73
2022/01/17 02:59:52;;;;;;;27.50;18.70;;;4.60;99.90;;;;;;2088556;28;20033;-73
2022/01/17 03:00:56;;;;;;;28.33;18.25;;;4.60;99.90;;;;;;2097805;28;20028;-73
2022/01/17 03:01:59;;;;;;;30.00;18.98;;;4.60;99.90;;;;;;2088618;28;20538;-72
2022/01/17 03:02:59;;;;;;;27.20;18.00;;;4.60;99.90;;;;;;2072858;28;20073;-74
2022/01/17 03:04:00;;;;;;;26.80;18.05;;;4.60;99.90;;;;;;2080017;28;20033;-73
2022/01/17 03:05:01;;;;;;;28.65;18.95;;;4.60;99.90;;;;;;2088680;28;20025;-73
2022/01/17 03:08:29;;;;;;;26.67;17.42;;;4.60;99.90;;;;;;2089798;28;20650;-75
2022/01/17 03:09:39;;;;;;;30.40;17.92;;;4.60;99.90;;;;;;2080441;28;20452;-73
2022/01/17 03:10:40;;;;;;;27.45;17.25;;;4.60;99.90;;;;;;2082172;28;20109;-72
2022/01/17 03:11:40;;;;;;;26.20;16.95;;;4.60;99.90;;;;;;2080407;28;20034;-72
2022/01/17 03:12:41;;;;;;;25.83;16.90;;;4.60;99.90;;;;;;2085317;28;20025;-74
2022/01/17 03:13:41;;;;;;;26.00;17.23;;;4.60;99.90;;;;;;2097638;28;20049;-73
2022/01/17 03:14:42;;;;;;;24.88;16.65;;;4.60;99.90;;;;;;2097262;28;20052;-73
2022/01/17 03:15:45;;;;;;;26.70;16.73;;;4.60;99.90;;;;;;2087920;28;20082;-73
2022/01/17 03:16:48;;;;;;;27.90;17.63;;;4.60;99.90;;;;;;2085646;28;20132;-73
2022/01/17 03:17:48;;;;;;;25.02;16.48;;;4.60;99.90;;;;;;2080883;28;20037;-72
2022/01/17 03:18:50;;;;;;;26.88;17.05;;;4.60;99.90;;;;;;2072776;28;20065;-73
2022/01/17 03:19:51;;;;;;;25.48;16.70;;;4.60;99.90;;;;;;2072980;28;20038;-73
2022/01/17 03:20:51;;;;;;;26.15;17.25;;;4.60;99.90;;;;;;2086484;28;20116;-73
2022/01/17 03:21:52;;;;;;;26.95;17.08;;;4.60;99.90;;;;;;2097680;28;20024;-72
2022/01/17 03:22:53;;;;;;;25.83;16.90;;;4.60;99.90;;;;;;2098388;28;20036;-72
2022/01/17 03:23:54;;;;;;;27.30;17.88;;;4.60;99.90;;;;;;2092015;28;20150;-73
2022/01/17 03:24:54;;;;;;;25.80;16.92;;;4.60;99.90;;;;;;2080989;28;20053;-72
2022/01/17 03:25:56;;;;;;;24.60;16.42;;;4.60;99.90;;;;;;2083414;28;20017;-72
2022/01/17 03:26:56;;;;;;;25.33;16.85;;;4.60;99.90;;;;;;2091677;28;20070;-72
2022/01/17 03:27:58;;;;;;;25.42;16.30;;;4.60;99.90;;;;;;2080790;28;20080;-72
2022/01/17 03:29:01;;;;;;;26.00;17.17;;;4.60;99.90;;;;;;2081135;28;20087;-72
2022/01/17 03:30:01;;;;;;;25.15;16.83;;;4.50;99.90;;;;;;2088563;28;20024;-72
2022/01/17 03:31:03;;;;;;;25.98;17.20;;;4.50;99.90;;;;;;2080674;28;20033;-72
2022/01/17 03:32:03;;;;;;;25.67;17.17;;;4.50;99.90;;;;;;2080474;28;20037;-73
2022/01/17 03:33:07;;;;;;;26.00;17.15;;;4.50;99.90;;;;;;2080942;28;20075;-72
2022/01/17 03:34:07;;;;;;;23.98;16.02;;;4.50;99.90;;;;;;2087364;28;20033;-75
2022/01/17 03:35:08;;;;;;;22.35;15.85;;;4.50;99.90;;;;;;2080230;28;20033;-74
2022/01/17 03:36:09;;;;;;;23.38;16.17;;;4.50;99.90;;;;;;2071736;28;20030;-75
2022/01/17 03:37:09;;;;;;;24.90;16.25;;;4.50;99.90;;;;;;2089339;28;20040;-74
2022/01/17 03:38:12;;;;;;;23.98;16.10;;;4.50;99.90;;;;;;2097366;28;20024;-73
2022/01/17 03:39:13;;;;;;;24.08;16.10;;;4.50;99.90;;;;;;2080087;28;20029;-74
2022/01/17 03:40:14;;;;;;;23.02;15.82;;;4.50;99.90;;;;;;2064253;28;20594;-74
2022/01/17 03:41:15;;;;;;;24.88;16.20;;;4.50;99.90;;;;;;2080227;28;20420;-74
2022/01/17 03:42:18;;;;;;;25.80;16.70;;;4.50;99.90;;;;;;2096541;28;20028;-73
2022/01/17 03:43:23;;;;;;;23.85;15.95;;;4.50;99.90;;;;;;2097330;28;20093;-74
2022/01/17 03:44:24;;;;;;;24.52;15.52;;;4.60;99.90;;;;;;2088687;28;20036;-73
2022/01/17 03:45:25;;;;;;;21.60;15.00;;;4.50;99.90;;;;;;2081991;28;20033;-75
2022/01/17 03:46:26;;;;;;;22.33;15.52;;;4.50;99.90;;;;;;2079709;28;20417;-74
2022/01/17 03:47:27;;;;;;;21.80;15.18;;;4.60;99.90;;;;;;2080409;28;20061;-74
2022/01/17 03:48:29;;;;;;;24.30;15.35;;;4.60;99.90;;;;;;2089909;28;20416;-73
2022/01/17 03:49:30;;;;;;;22.40;15.15;;;4.60;99.90;;;;;;2084902;28;20057;-73
2022/01/17 03:50:30;;;;;;;22.30;15.32;;;4.60;99.90;;;;;;2080157;28;20091;-73
2022/01/17 03:51:31;;;;;;;23.42;15.77;;;4.60;99.90;;;;;;2080302;28;20112;-73
2022/01/17 03:52:32;;;;;;;21.48;15.18;;;4.60;99.90;;;;;;2077233;28;20049;-73
2022/01/17 03:53:32;;;;;;;22.70;15.20;;;4.60;99.90;;;;;;2080501;28;20029;-73
2022/01/17 03:54:34;;;;;;;21.73;15.05;;;4.60;99.90;;;;;;2087854;28;20041;-73
2022/01/17 03:55:35;;;;;;;20.85;14.95;;;4.70;99.90;;;;;;2080353;28;20079;-74
2022/01/17 03:56:35;;;;;;;21.85;15.13;;;4.70;99.90;;;;;;2079581;28;20029;-73
2022/01/17 03:57:36;;;;;;;20.90;14.77;;;4.70;99.90;;;;;;2090200;28;20748;-73
2022/01/17 03:58:37;;;;;;;24.67;15.10;;;4.70;99.90;;;;;;2097445;28;20071;-73
2022/01/17 03:59:37;;;;;;;20.98;14.48;;;4.60;99.90;;;;;;2084006;28;20025;-73
2022/01/17 04:00:43;;;;;;;22.50;15.23;;;4.70;99.90;;;;;;2080968;28;20021;-73
2022/01/17 04:01:43;;;;;;;21.15;14.43;;;4.70;99.90;;;;;;2089443;28;20025;-73
2022/01/17 04:02:45;;;;;;;22.20;14.77;;;4.70;99.90;;;;;;2089655;28;20021;-74
2022/01/17 04:03:46;;;;;;;21.38;14.35;;;4.70;99.90;;;;;;2095734;28;20083;-73
2022/01/17 04:04:47;;;;;;;21.75;14.68;;;4.70;99.90;;;;;;2094835;28;20020;-74
2022/01/17 04:05:48;;;;;;;22.95;13.98;;;4.70;99.90;;;;;;2089711;28;20102;-72
2022/01/17 04:06:49;;;;;;;21.33;14.63;;;4.70;99.90;;;;;;2085713;28;20048;-73
2022/01/17 04:07:49;;;;;;;19.08;13.77;;;4.70;99.90;;;;;;2073466;28;20777;-74
2022/01/17 04:08:50;;;;;;;19.35;14.23;;;4.70;99.90;;;;;;2072861;28;20033;-73
2022/01/17 04:09:51;;;;;;;22.63;14.88;;;4.70;99.90;;;;;;2086882;28;20040;-73
2022/01/17 04:10:52;;;;;;;21.23;14.10;;;4.70;99.90;;;;;;2079208;28;20108;-72
2022/01/17 04:11:53;;;;;;;21.08;14.32;;;4.70;99.90;;;;;;2079443;28;20052;-73
2022/01/17 04:13:00;;;;;;;21.40;14.02;;;4.70;99.90;;;;;;2088917;28;20107;-73
2022/01/17 04:14:00;;;;;;;21.25;14.15;;;4.70;99.90;;;;;;2096435;28;20081;-73
2022/01/17 04:15:01;;;;;;;22.00;13.52;;;4.70;99.90;;;;;;2097089;28;20024;-75
2022/01/17 04:16:02;;;;;;;21.00;13.68;;;4.80;99.90;;;;;;2096895;28;20025;-74
2022/01/17 04:17:05;;;;;;;19.15;13.27;;;4.80;99.90;;;;;;2089851;28;20411;-71
2022/01/17 04:18:08;;;;;;;20.33;13.90;;;4.80;99.90;;;;;;2088940;28;20112;-73
2022/01/17 04:19:10;;;;;;;23.65;14.35;;;4.80;99.90;;;;;;2088859;28;20017;-73
2022/01/17 04:20:16;;;;;;;21.80;14.35;;;4.80;99.90;;;;;;2089207;28;20045;-73
2022/01/17 04:21:16;;;;;;;20.98;13.77;;;4.80;99.90;;;;;;2087430;28;20037;-76
2022/01/17 04:22:17;;;;;;;20.05;13.57;;;4.80;99.90;;;;;;2088969;28;20033;-73
2022/01/17 04:23:18;;;;;;;20.42;13.38;;;4.80;99.90;;;;;;2088657;28;20025;-74
2022/01/17 04:24:19;;;;;;;19.05;13.43;;;4.80;99.90;;;;;;2088124;28;20029;-74
2022/01/17 04:25:29;;;;;;;19.35;13.48;;;4.80;99.90;;;;;;2097504;28;20050;-74
2022/01/17 04:26:29;;;;;;;22.95;13.35;;;4.90;99.90;;;;;;2096954;28;20108;-74
2022/01/17 04:27:31;;;;;;;21.10;12.80;;;4.90;99.90;;;;;;2087001;28;20029;-72
2022/01/17 04:28:32;;;;;;;20.60;13.20;;;4.90;99.90;;;;;;2080099;28;20441;-73
2022/01/17 04:29:33;;;;;;;19.77;13.25;;;4.90;99.90;;;;;;2076739;28;20033;-73
2022/01/17 04:30:35;;;;;;;20.88;13.15;;;4.90;99.90;;;;;;2088845;28;20028;-73
2022/01/17 04:31:36;;;;;;;18.65;12.98;;;4.90;99.90;;;;;;2092047;28;20037;-75
2022/01/17 04:32:37;;;;;;;19.10;13.05;;;4.90;99.90;;;;;;2089309;28;20045;-74
2022/01/17 04:33:37;;;;;;;20.55;13.10;;;4.90;99.90;;;;;;2088707;28;20063;-72
2022/01/17 04:34:38;;;;;;;20.95;13.77;;;4.90;99.90;;;;;;2088724;28;20036;-73
2022/01/17 04:35:41;;;;;;;21.20;13.40;;;4.90;99.90;;;;;;2080155;28;20042;-73
2022/01/17 04:36:41;;;;;;;19.60;13.48;;;4.90;99.90;;;;;;2079891;28;20041;-73
2022/01/17 04:37:42;;;;;;;18.85;12.85;;;4.90;99.90;;;;;;2089519;28;20028;-72
2022/01/17 04:38:42;;;;;;;22.08;13.60;;;4.90;99.90;;;;;;2092214;28;20062;-74
2022/01/17 04:39:43;;;;;;;20.85;12.98;;;4.90;99.90;;;;;;2083561;28;20029;-72
2022/01/17 04:40:47;;;;;;;19.67;12.82;;;4.90;99.90;;;;;;2080578;28;20133;-73
2022/01/17 04:41:47;;;;;;;20.52;13.38;;;4.90;99.90;;;;;;2082869;28;20039;-73
2022/01/17 04:42:49;;;;;;;19.42;12.95;;;4.90;99.90;;;;;;2088377;28;20025;-73
2022/01/17 04:45:11;;;;;;;18.40;12.65;;;4.90;99.90;;;;;;2097116;28;20060;-74
2022/01/17 04:46:11;;;;;;;18.98;12.55;;;4.90;99.90;;;;;;2096532;28;20023;-74
2022/01/17 04:47:12;;;;;;;17.83;12.20;;;4.90;99.90;;;;;;2096688;28;20407;-72
2022/01/17 04:48:13;;;;;;;18.58;12.60;;;4.90;99.90;;;;;;2088183;28;20021;-72
2022/01/17 04:49:14;;;;;;;20.20;12.68;;;4.90;99.90;;;;;;2086358;28;20029;-73
2022/01/17 04:50:21;;;;;;;19.63;12.70;;;4.90;99.90;;;;;;2097320;28;20059;-74
2022/01/17 04:51:21;;;;;;;17.58;12.30;;;4.90;99.90;;;;;;2087934;28;20025;-71
2022/01/17 04:52:22;;;;;;;17.92;11.95;;;5.00;99.90;;;;;;2079489;28;20068;-72
2022/01/17 04:53:23;;;;;;;21.58;12.63;;;5.00;99.90;;;;;;2088044;28;20448;-73
2022/01/17 04:54:39;;;;;;;18.17;11.85;;;4.90;99.90;;;;;;2087713;28;20155;-73
2022/01/17 04:55:40;;;;;;;18.33;11.73;;;5.00;99.90;;;;;;2088209;28;20045;-74
2022/01/17 04:56:40;;;;;;;17.08;11.43;;;5.00;99.90;;;;;;2087845;28;20111;-74
2022/01/17 04:57:43;;;;;;;17.20;11.52;;;5.00;99.90;;;;;;2088851;28;20144;-74
2022/01/17 04:58:43;;;;;;;17.73;11.65;;;5.00;99.90;;;;;;2088653;28;20496;-74
2022/01/17 04:59:44;;;;;;;16.92;11.43;;;5.00;99.90;;;;;;2088385;28;20033;-74
2022/01/17 05:00:48;;;;;;;17.92;11.48;;;5.00;99.90;;;;;;2079705;28;20025;-75
2022/01/17 05:01:49;;;;;;;17.08;11.32;;;5.00;99.90;;;;;;2071900;28;20026;-73
2022/01/17 05:02:50;;;;;;;18.67;11.57;;;5.00;99.90;;;;;;2079627;28;20033;-73
2022/01/17 05:03:50;;;;;;;16.75;11.40;;;5.10;99.90;;;;;;2079947;28;20025;-74
2022/01/17 05:04:51;;;;;;;16.52;10.30;;;5.10;99.90;;;;;;2070933;28;20029;-73
2022/01/17 05:05:52;;;;;;;16.95;11.00;;;5.10;99.90;;;;;;2079310;28;20475;-75
2022/01/17 05:06:53;;;;;;;15.93;10.63;;;5.10;99.90;;;;;;2095576;28;20487;-74
2022/01/17 05:07:54;;;;;;;17.02;11.00;;;5.10;99.90;;;;;;2087432;28;20040;-74
2022/01/17 05:08:54;;;;;;;14.95;10.32;;;5.10;99.90;;;;;;2079915;28;20033;-75
2022/01/17 05:09:55;;;;;;;15.35;10.43;;;5.10;99.90;;;;;;2079460;28;20028;-74
2022/01/17 05:10:56;;;;;;;14.43;10.18;;;5.10;99.90;;;;;;2088559;28;20059;-74
2022/01/17 05:11:56;;;;;;;16.45;10.43;;;5.20;99.90;;;;;;2087776;28;20021;-75
2022/01/17 05:12:57;;;;;;;16.55;10.18;;;5.20;99.90;;;;;;2087773;28;20447;-75
2022/01/17 05:13:58;;;;;;;15.63;9.98;;;5.20;99.90;;;;;;2087991;28;20029;-73
2022/01/17 05:14:59;;;;;;;15.10;10.00;;;5.20;99.90;;;;;;2079640;28;20048;-73
2022/01/17 05:16:13;;;;;;;14.98;9.80;;;5.20;99.90;;;;;;2078298;28;20036;-73
2022/01/17 05:17:57;;;;;;;14.82;9.93;;;5.20;99.90;;;;;;2089928;28;20480;-73
2022/01/17 05:19:48;;;;;;;14.23;9.50;;;5.20;99.90;;;;;;2096843;28;20036;-73
2022/01/17 05:20:49;;;;;;;16.10;9.60;;;5.30;99.90;;;;;;2088062;28;20033;-73
2022/01/17 05:21:50;;;;;;;14.90;10.05;;;5.30;99.90;;;;;;2075809;28;20046;-73
2022/01/17 05:22:51;;;;;;;17.20;10.02;;;5.30;99.90;;;;;;2079343;28;20036;-74
2022/01/17 05:23:51;;;;;;;18.35;10.45;;;5.30;99.90;;;;;;2097209;28;20031;-73
2022/01/17 05:24:53;;;;;;;14.52;9.57;;;5.40;99.90;;;;;;2096855;28;20032;-73
2022/01/17 05:25:53;;;;;;;15.63;10.32;;;5.40;99.90;;;;;;2088212;28;20024;-74
2022/01/17 05:26:54;;;;;;;15.90;9.65;;;5.40;99.90;;;;;;2088985;28;20017;-74
2022/01/17 05:27:55;;;;;;;14.65;9.90;;;5.40;99.90;;;;;;2088313;28;20020;-73
2022/01/17 05:28:55;;;;;;;15.18;9.85;;;5.40;99.90;;;;;;2080862;28;20089;-72
2022/01/17 05:29:56;;;;;;;14.63;10.07;;;5.40;99.90;;;;;;2089027;28;20036;-73
2022/01/17 05:30:56;;;;;;;15.38;9.35;;;5.40;99.90;;;;;;2088784;28;20029;-71
2022/01/17 05:31:57;;;;;;;14.85;9.02;;;5.40;99.90;;;;;;2097545;28;20384;-73
2022/01/17 05:32:58;;;;;;;14.32;9.63;;;5.40;99.90;;;;;;2098041;28;20038;-73
2022/01/17 05:33:59;;;;;;;16.25;9.85;;;5.40;99.90;;;;;;2089081;28;20036;-72
2022/01/17 05:34:59;;;;;;;16.45;9.45;;;5.40;99.90;;;;;;2080663;28;20053;-73
2022/01/17 05:36:00;;;;;;;15.85;10.07;;;5.40;99.90;;;;;;2081128;28;20061;-73